Kendall, Washington
Current Conditions -  °F | °C
As of 10:00 PM on Thursday 27 Nov 2014 (Local Time) from CYXX Reporting Station
Moderate Rain Moderate Rain  
Wind Chill: 11°   Ceiling: 2000
Heat Index: 11°   Visibility: 10mi
Dew Point: 11°   Wind: 16mph
Humidity: 100%   Direction: 200°SSW
Pressure: 29.59"   Gusts: NA
Location:  48.8512°N, 121.903°W
Report Text: CYXX 280600Z 20014KT 10SM RA FEW010 BKN020 OVC030 11/11 A2959 RMK SF1SC4SC3 SLP022
Loading
Personal Weather Stations






























Interactive Weather Map New forecast layout! Learn more

10-Day Weather Forecast

Advertisements
Track Severe Weather on mobile